Terminal Aerodrome Forecast
Issued by NWS

Home | Current Version | Previous Version | Text Only | Print | Product List | Glossary On
Versions: 1 2 3 4 5 6 7 8 9 10 11 12 13 14 15 16 17 18 19 20 21 22 23 24 25 26
587
FTUS41 KBUF 110530
TAFIAG
TAF
KIAG 110530Z 1106/1206 27013KT P6SM -SN BKN035
     FM110800 28013KT 6SM -SN BKN035
     FM110900 29014KT 6SM -SN BKN025
     FM111400 30015KT P6SM VCSH BKN025
     FM112200 29014KT P6SM BKN060
     FM120500 24007KT P6SM SCT060=

USA.gov is the U.S. government's official web portal to all federal, state and local government web resources and services.